KMTV

Blue Ridge Airport

Martinsville, Virginia, USA
METAR KMTV 201255Z AUTO 00000KT 10SM CLR M08/M10 A3017 RMK AO2 T10811102
Observed Flight Rules
Jan-20 @ 12:55 UTC (16 minutes ago) Visual Flight Rules
Wind Visibility Clouds
Calm 10 miles
  • Clear skies
Temperatures Readings
Current -8°C / 18°F
Dewpoint -10°C / 14°F
Humidity 86%
Altimeter 30.17" Hg
Pressure 1022 hPa
Elevation 287
METAR KMTV 201255Z AUTO 00000KT 10SM CLR M08/M10 A3017 RMK AO2 T10811102
Observed Flight Rules
Jan-20 @ 12:55 UTC
(16 minutes ago)
VFR
Wind Visibility
Calm 10 miles
Clouds
  • Clear skies
Temperature Dewpoint
-8°C / 18°F -10°C / 14°F
Humidity Altimeter Pressure
86% 30.17" Hg 1022 hPa